Aviation Digital Data Service (ADDS)

Output produced by TAFs form (1459 UTC 26 April 2018)
found at http://aviationweather.gov/adds/tafs/
 
KTUS 261138Z 2612/2712 14007KT P6SM BKN250 
     FM261700 20006KT P6SM BKN250 
     FM262000 30008KT P6SM BKN250 
     FM270400 22007KT P6SM FEW150 BKN250 
     FM270800 15006KT P6SM SCT130 BKN250